KBPI/BPI METAR and TAF weather

Enter ICAO airport designator
Station Type Date Time Source
KBPI METAR 2018/01/19 22:53 UTC NOAA

KBPI 192253Z AUTO 34008KT 10SM SCT036 BKN065 OVC100 01/M02 A2977 RMK AO2 SNE14 SLP084 P0000 T00111022


Station Type Date Time Source
KBPI Decoded METAR 2018/01/19 22:53 UTC NOAA

BIG PINEY-MARBLETON AIRPORT, WY, United States (KBPI) 42-35N 110-06W 2117M
Jan 19, 2018 - 05:53 PM EST / 2018.01.19 2253 UTC
Wind: from the NNW (340 degrees) at 9 MPH (8 KT):0
Visibility: 10 mile(s):0
Sky conditions: overcast
Precipitation last hour: A trace
Temperature: 34.0 F (1.1 C)
Windchill: 26 F (-3 C):1
Dew Point: 28.0 F (-2.2 C)
Relative Humidity: 78%
Pressure (altimeter): 29.77 in. Hg (1008 hPa)
ob: KBPI 192253Z AUTO 34008KT 10SM SCT036 BKN065 OVC100 01/M02 A2977 RMK AO2 SNE14 SLP084 P0000 T00111022
cycle: 23

Station Type Date Time Source
KBPI TAF 2018/01/19 23:36 UTC NOAA

TAF
AMD KBPI 192233Z 1923/2018 36006KT 3SM -SN OVC028
FM200600 35007KT 5SM -SN OVC030
FM201600 36008KT 3SM -SN OVC018


Example: see airport list